createdAt,value
2022-11-05T00:05:15.623Z,89.69
2022-11-05T00:20:17.738Z,89.62
2022-11-05T00:35:21.956Z,89.53
2022-11-05T00:50:24.569Z,90.38
2022-11-05T01:05:27.289Z,90.91
2022-11-05T01:20:29.545Z,91.29
2022-11-05T01:35:31.478Z,92.23
2022-11-05T01:50:42.380Z,92.31
2022-11-05T02:05:45.527Z,92.17
2022-11-05T02:21:08.360Z,92.51
2022-11-05T02:36:36.314Z,93.92
2022-11-05T02:51:47.541Z,93.39
2022-11-05T03:07:08.302Z,94.23
2022-11-05T03:22:17.123Z,94.21
2022-11-05T03:37:23.118Z,93.69
2022-11-05T03:52:30.129Z,93.79
2022-11-05T04:07:50.449Z,94.25
2022-11-05T04:23:18.743Z,93.63
2022-11-05T04:38:20.636Z,93.17
2022-11-05T04:53:22.771Z,94.38
2022-11-05T05:08:24.913Z,94.64
2022-11-05T05:23:27.025Z,87.46
2022-11-05T05:38:30.339Z,78.55
2022-11-05T05:53:32.719Z,72.68
2022-11-05T06:08:37.149Z,62.63
2022-11-05T06:23:40.307Z,58.73
2022-11-05T06:38:42.350Z,55.28
2022-11-05T06:53:44.278Z,53.69
2022-11-05T07:08:46.221Z,52.18
2022-11-05T07:23:49.121Z,49.28
2022-11-05T07:38:52.276Z,48.68
2022-11-05T07:53:55.772Z,46.61
2022-11-05T08:08:57.736Z,45.85
2022-11-05T08:23:59.770Z,44.90
2022-11-05T08:39:05.234Z,43.54
2022-11-05T08:54:07.278Z,50.49
2022-11-05T09:09:09.161Z,54.76
2022-11-05T09:24:12.481Z,53.02
2022-11-05T09:39:14.726Z,56.58
2022-11-05T09:54:16.668Z,46.98
2022-11-05T10:09:24.749Z,40.62
2022-11-05T10:24:28.001Z,41.90
2022-11-05T10:39:32.274Z,39.00
2022-11-05T10:54:35.874Z,43.85
2022-11-05T11:09:40.903Z,51.49
2022-11-05T11:24:52.338Z,50.73
2022-11-05T11:40:12.252Z,41.38
2022-11-05T11:55:18.954Z,38.38
2022-11-05T12:10:39.130Z,47.70
2022-11-05T12:26:00.421Z,57.70
2022-11-05T12:41:11.285Z,60.92
2022-11-05T12:56:25.556Z,62.24
2022-11-05T13:11:33.528Z,62.15
2022-11-05T13:26:47.520Z,61.72
2022-11-05T13:42:30.440Z,62.83
2022-11-05T13:58:15.096Z,63.46
2022-11-05T14:13:20.315Z,64.02
2022-11-05T14:28:43.791Z,65.58
2022-11-05T14:43:56.282Z,64.93
2022-11-05T14:59:25.782Z,64.72
2022-11-05T15:14:34.291Z,67.86
2022-11-05T15:29:36.427Z,70.57
2022-11-05T15:44:43.698Z,71.49
2022-11-05T15:59:47.428Z,70.88
2022-11-05T16:14:59.393Z,68.01
2022-11-05T16:30:01.490Z,71.42
2022-11-05T16:45:03.912Z,72.93
2022-11-05T17:00:06.828Z,75.03
2022-11-05T17:15:31.219Z,75.75
2022-11-05T17:30:33.544Z,76.92
2022-11-05T17:45:41.959Z,80.28
2022-11-05T18:00:45.622Z,83.43
2022-11-05T18:15:50.062Z,85.18
2022-11-05T18:30:52.008Z,85.71
2022-11-05T18:45:56.947Z,84.23
2022-11-05T19:01:19.390Z,83.79
2022-11-05T19:16:24.523Z,83.38
2022-11-05T19:31:27.040Z,83.80
2022-11-05T19:46:30.607Z,82.59
2022-11-05T20:01:33.679Z,82.40
2022-11-05T20:16:40.328Z,83.28
2022-11-05T20:31:42.725Z,82.38
2022-11-05T20:46:44.617Z,82.79
2022-11-05T21:01:46.711Z,82.93
2022-11-05T21:16:48.802Z,83.14
2022-11-05T21:31:51.256Z,83.21
2022-11-05T21:46:56.972Z,84.17
2022-11-05T22:02:01.925Z,85.04
2022-11-05T22:17:04.806Z,84.72
2022-11-05T22:32:07.100Z,83.08
2022-11-05T22:47:09.268Z,82.04
2022-11-05T23:02:12.331Z,82.84
2022-11-05T23:17:32.744Z,82.17
2022-11-05T23:32:36.873Z,81.86
2022-11-05T23:47:57.152Z,81.98
